createdAt,value
2022-09-26T05:55:14.165Z,6.18
2022-09-26T05:58:19.907Z,5.63
2022-09-26T06:01:13.342Z,7.70
2022-09-26T06:03:46.331Z,7.05
2022-09-26T06:06:22.340Z,6.63
2022-09-26T06:09:03.342Z,6.40
2022-09-26T06:14:21.180Z,9.50
2022-09-26T06:16:57.320Z,11.65
2022-09-26T06:19:28.585Z,13.70
2022-09-26T06:21:59.081Z,10.48
2022-09-26T06:24:32.167Z,9.40
2022-09-26T06:27:04.513Z,11.40
2022-09-26T06:29:32.614Z,10.95
2022-09-26T06:32:08.085Z,8.95
2022-09-26T06:34:59.282Z,10.15
2022-09-26T06:38:05.546Z,11.18
2022-09-26T06:40:39.992Z,10.48
2022-09-26T06:43:10.850Z,11.18
2022-09-26T06:46:04.580Z,8.27
2022-09-26T06:48:48.451Z,9.85
2022-09-26T06:51:49.630Z,9.57
2022-09-26T06:54:27.450Z,9.13
2022-09-26T06:56:58.208Z,10.75
2022-09-26T06:59:31.562Z,8.68
2022-09-26T07:02:17.053Z,7.85
2022-09-26T07:05:08.586Z,8.52
2022-09-26T07:07:42.480Z,8.57
2022-09-26T07:10:18.913Z,8.80
2022-09-26T07:13:11.069Z,8.75
2022-09-26T07:15:54.371Z,9.90
2022-09-26T07:18:51.628Z,8.10
2022-09-26T07:21:54.191Z,8.52
2022-09-26T07:24:40.069Z,8.82
2022-09-26T07:27:11.562Z,8.23
2022-09-26T07:29:40.064Z,8.45
2022-09-26T07:32:12.144Z,9.02
2022-09-26T07:35:03.716Z,7.80
2022-09-26T07:37:34.978Z,8.77
2022-09-26T07:40:09.821Z,7.85
2022-09-26T07:42:50.669Z,7.75
2022-09-26T07:45:51.059Z,9.43
2022-09-26T07:48:40.331Z,7.05
2022-09-26T07:51:31.925Z,8.07
2022-09-26T07:54:09.651Z,7.95
2022-09-26T07:57:15.825Z,7.53
2022-09-26T07:59:55.994Z,8.85
2022-09-26T08:02:53.019Z,8.45
2022-09-26T08:05:24.455Z,8.07
2022-09-26T08:07:58.856Z,9.00
2022-09-26T08:10:51.013Z,7.45
2022-09-26T08:13:40.139Z,6.68
2022-09-26T08:16:42.561Z,8.88
2022-09-26T08:19:20.289Z,6.55
2022-09-26T08:22:00.002Z,10.70
2022-09-26T08:24:36.262Z,8.27
2022-09-26T08:27:34.728Z,8.60
2022-09-26T08:30:07.762Z,8.38
2022-09-26T08:32:39.858Z,7.70
2022-09-26T08:35:15.212Z,9.18
2022-09-26T08:38:27.530Z,7.00
2022-09-26T08:41:54.216Z,8.52
2022-09-26T08:45:46.667Z,9.20
2022-09-26T08:49:04.983Z,10.00
2022-09-26T08:51:49.773Z,8.27
2022-09-26T08:54:42.868Z,8.65
2022-09-26T08:57:40.298Z,8.95
2022-09-26T09:00:27.593Z,8.55
2022-09-26T09:03:38.015Z,8.32
2022-09-26T09:06:16.125Z,8.32
2022-09-26T09:08:54.604Z,8.25
2022-09-26T09:11:58.228Z,8.10
2022-09-26T09:15:23.600Z,8.63
2022-09-26T09:18:29.700Z,7.75
2022-09-26T09:21:51.563Z,6.75
2022-09-26T09:25:06.831Z,9.68
2022-09-26T09:28:10.314Z,9.48
2022-09-26T09:30:50.908Z,7.63
2022-09-26T09:33:54.688Z,7.28
2022-09-26T09:36:51.809Z,6.88
2022-09-26T09:39:40.911Z,6.50
2022-09-26T09:42:53.788Z,8.02
2022-09-26T09:45:36.603Z,8.25
2022-09-26T09:48:15.044Z,7.60
2022-09-26T09:50:46.075Z,7.45
2022-09-26T09:53:39.602Z,8.05
2022-09-26T09:56:45.733Z,8.38
2022-09-26T09:59:33.922Z,7.60
2022-09-26T10:03:01.366Z,7.43
2022-09-26T10:05:45.792Z,9.98
2022-09-26T10:08:41.903Z,7.97
2022-09-26T10:11:26.512Z,7.50
2022-09-26T10:14:06.362Z,6.93
2022-09-26T10:21:42.761Z,7.70
2022-09-26T10:24:34.473Z,7.68
2022-09-26T10:27:40.109Z,8.80
2022-09-26T10:30:33.239Z,6.93
2022-09-26T10:33:31.283Z,8.50
2022-09-26T10:36:45.703Z,8.07
2022-09-26T10:39:43.685Z,8.52
2022-09-26T10:42:32.463Z,6.63
2022-09-26T10:45:35.363Z,5.97
2022-09-26T10:48:57.224Z,7.32
2022-09-26T10:51:57.187Z,6.10
2022-09-26T10:54:41.362Z,6.78
2022-09-26T10:57:23.212Z,6.20
2022-09-26T11:00:00.802Z,6.22
2022-09-26T11:02:38.447Z,6.95
2022-09-26T11:05:30.827Z,6.75
2022-09-26T11:08:14.328Z,6.95
2022-09-26T11:11:12.773Z,6.00
2022-09-26T11:14:08.948Z,5.88
2022-09-26T11:16:59.666Z,7.07
2022-09-26T11:19:40.129Z,6.50
2022-09-26T11:22:43.607Z,6.05
2022-09-26T11:25:25.786Z,6.70
2022-09-26T11:28:12.653Z,7.65
2022-09-26T11:31:13.329Z,7.63
2022-09-26T11:33:52.062Z,6.18
2022-09-26T11:37:09.712Z,7.38
2022-09-26T11:40:09.238Z,7.43
2022-09-26T11:43:08.987Z,5.78
2022-09-26T11:46:04.405Z,7.63
2022-09-26T11:49:03.890Z,6.10
2022-09-26T11:52:20.513Z,7.05
2022-09-26T11:55:19.401Z,6.85
2022-09-26T11:58:07.986Z,7.43
2022-09-26T12:01:00.536Z,7.07
2022-09-26T12:04:07.764Z,5.97
2022-09-26T12:06:56.450Z,9.15
2022-09-26T12:09:52.093Z,7.03
2022-09-26T12:12:44.071Z,6.53
2022-09-26T12:15:44.604Z,7.45
2022-09-26T12:18:24.316Z,7.25
2022-09-26T12:21:05.290Z,6.95
2022-09-26T12:23:41.285Z,6.20
2022-09-26T12:26:34.917Z,7.82
2022-09-26T12:29:26.815Z,8.40
2022-09-26T12:32:17.839Z,9.52
2022-09-26T12:35:19.848Z,7.30
2022-09-26T12:38:08.982Z,10.60
2022-09-26T12:40:53.659Z,6.90
2022-09-26T12:44:04.431Z,7.07
2022-09-26T12:46:50.493Z,7.20
2022-09-26T12:49:34.603Z,5.95
2022-09-26T12:52:27.878Z,7.72
2022-09-26T12:55:29.986Z,9.57
2022-09-26T12:58:29.244Z,7.53
2022-09-26T13:01:24.742Z,6.63
2022-09-26T13:04:21.047Z,7.50
2022-09-26T13:07:20.779Z,6.70
2022-09-26T13:10:33.830Z,7.20
2022-09-26T13:13:31.651Z,6.80
2022-09-26T13:16:20.896Z,8.00
2022-09-26T13:18:56.271Z,7.00
2022-09-26T13:21:34.897Z,8.55
2022-09-26T13:24:19.475Z,9.40
2022-09-26T13:26:55.892Z,8.75
2022-09-26T13:29:37.614Z,8.35
2022-09-26T13:32:23.863Z,7.97
2022-09-26T13:35:13.360Z,6.82
2022-09-26T13:38:27.601Z,7.78
2022-09-26T13:41:06.925Z,7.60
2022-09-26T13:44:07.952Z,7.00
2022-09-26T13:46:55.008Z,7.50
2022-09-26T13:50:08.577Z,7.70
2022-09-26T13:52:52.617Z,8.07
2022-09-26T13:55:30.095Z,8.65
2022-09-26T13:58:04.993Z,8.13
2022-09-26T14:00:49.505Z,8.50
2022-09-26T14:03:17.724Z,6.18
2022-09-26T14:05:55.230Z,5.15
2022-09-26T14:08:42.884Z,7.00
2022-09-26T14:11:19.923Z,6.80
2022-09-26T14:14:07.789Z,7.43
2022-09-26T14:16:41.352Z,6.57
2022-09-26T14:19:33.287Z,6.57
2022-09-26T14:22:24.769Z,6.32
2022-09-26T14:25:02.788Z,6.32
2022-09-26T14:27:42.594Z,6.22
2022-09-26T14:30:19.103Z,6.57
2022-09-26T14:32:47.294Z,8.20
2022-09-26T14:35:32.976Z,5.40
2022-09-26T14:38:17.577Z,6.68
2022-09-26T14:41:00.765Z,6.07
2022-09-26T14:43:38.683Z,7.75
2022-09-26T14:46:20.145Z,3.92
2022-09-26T14:49:08.950Z,7.72
2022-09-26T14:51:48.858Z,7.03
2022-09-26T14:54:38.930Z,5.30
2022-09-26T14:57:21.082Z,7.60
2022-09-26T14:59:54.998Z,6.95
2022-09-26T15:02:57.513Z,5.18
2022-09-26T15:05:38.624Z,5.93
2022-09-26T15:08:23.998Z,6.38
2022-09-26T15:10:57.585Z,5.63
2022-09-26T15:17:00.715Z,5.13
2022-09-26T15:19:40.985Z,5.90
2022-09-26T15:22:19.092Z,4.57
2022-09-26T15:24:52.832Z,4.97
2022-09-26T15:27:31.852Z,6.38
2022-09-26T15:30:17.052Z,6.57
2022-09-26T15:33:03.431Z,6.22
2022-09-26T15:35:40.138Z,6.40
2022-09-26T15:38:16.441Z,8.68
2022-09-26T15:40:59.323Z,5.70
2022-09-26T15:43:34.920Z,6.10
2022-09-26T15:46:24.235Z,4.80
2022-09-26T15:48:52.200Z,7.13
2022-09-26T15:51:37.853Z,8.88
2022-09-26T15:54:20.327Z,4.93
2022-09-26T15:57:01.921Z,5.65
2022-09-26T15:59:41.483Z,4.30
2022-09-26T16:02:33.155Z,5.82
2022-09-26T16:05:14.794Z,5.70
2022-09-26T16:07:56.376Z,5.97
2022-09-26T16:10:37.312Z,7.65
2022-09-26T16:13:10.092Z,5.03
2022-09-26T16:15:52.149Z,7.80
2022-09-26T16:18:44.468Z,5.25
2022-09-26T16:21:34.239Z,6.13
2022-09-26T16:24:34.486Z,5.13
2022-09-26T16:27:26.975Z,6.13
2022-09-26T16:30:21.740Z,5.63
2022-09-26T16:33:21.826Z,8.73
2022-09-26T16:35:52.185Z,6.28
2022-09-26T16:38:42.365Z,4.05
2022-09-26T16:42:00.595Z,5.35
2022-09-26T16:44:50.124Z,5.75
2022-09-26T16:47:43.341Z,6.00
2022-09-26T16:50:36.206Z,4.47
2022-09-26T16:53:13.658Z,7.00
2022-09-26T16:55:46.607Z,4.82
2022-09-26T16:58:17.975Z,6.15
2022-09-26T17:01:07.542Z,3.80
2022-09-26T17:03:37.298Z,7.18
2022-09-26T17:06:08.097Z,4.93
2022-09-26T17:08:38.820Z,5.28
2022-09-26T17:11:15.209Z,4.55
2022-09-26T17:13:49.585Z,5.38
2022-09-26T17:16:22.153Z,6.00
2022-09-26T17:18:50.062Z,5.35
2022-09-26T17:21:20.713Z,6.03
2022-09-26T17:23:51.284Z,4.35
2022-09-26T17:26:23.674Z,4.93
2022-09-26T17:29:01.120Z,5.13
2022-09-26T17:31:29.007Z,4.68
2022-09-26T17:34:04.696Z,14.45
2022-09-26T17:36:33.212Z,4.75
2022-09-26T17:39:15.623Z,4.50
2022-09-26T17:41:44.087Z,3.72
2022-09-26T17:44:14.281Z,4.88
2022-09-26T17:46:48.257Z,4.45
2022-09-26T17:49:36.879Z,5.20
2022-09-26T17:52:15.448Z,5.78
2022-09-26T17:54:45.648Z,7.88
2022-09-26T17:57:17.207Z,5.05
2022-09-26T17:59:48.671Z,4.45
2022-09-26T18:02:31.010Z,4.15
2022-09-26T18:05:03.939Z,4.40
2022-09-26T18:07:36.845Z,4.03
2022-09-26T18:10:07.760Z,5.50
2022-09-26T18:12:36.589Z,3.88
2022-09-26T18:15:21.306Z,4.25
2022-09-26T18:17:50.180Z,4.03
2022-09-26T18:20:19.901Z,4.60
2022-09-26T18:22:52.152Z,5.20
2022-09-26T18:25:23.244Z,4.55
2022-09-26T18:27:56.775Z,5.45
2022-09-26T18:32:59.193Z,5.18
2022-09-26T18:35:32.467Z,5.20
2022-09-26T18:38:03.334Z,4.50
2022-09-26T18:40:41.351Z,5.35
2022-09-26T18:43:19.869Z,5.35
2022-09-26T18:45:48.117Z,5.35
2022-09-26T18:48:36.387Z,5.03
2022-09-26T18:51:03.973Z,3.80
2022-09-26T18:53:37.480Z,5.32
2022-09-26T18:56:29.871Z,5.85
2022-09-26T18:59:00.188Z,4.35
2022-09-26T19:01:34.382Z,5.30
2022-09-26T19:04:26.228Z,6.32
2022-09-26T19:07:01.066Z,4.65
2022-09-26T19:09:35.199Z,5.72
2022-09-26T19:12:05.596Z,5.50
2022-09-26T19:14:36.556Z,5.88
2022-09-26T19:17:07.521Z,5.47
2022-09-26T19:19:35.093Z,4.95
2022-09-26T19:22:10.275Z,5.22
2022-09-26T19:24:49.993Z,5.15
2022-09-26T19:27:22.520Z,5.65
2022-09-26T19:30:04.615Z,5.32
2022-09-26T19:32:33.936Z,5.35
2022-09-26T19:35:25.037Z,5.13
2022-09-26T19:37:56.116Z,5.63
2022-09-26T19:40:24.899Z,5.65
2022-09-26T19:42:58.099Z,5.30
2022-09-26T19:45:32.332Z,4.88
2022-09-26T19:48:00.886Z,5.85
2022-09-26T19:50:35.760Z,4.57
2022-09-26T19:53:12.607Z,5.70
2022-09-26T19:55:43.153Z,6.18
2022-09-26T19:58:25.572Z,5.13
2022-09-26T20:00:55.951Z,6.68
2022-09-26T20:03:29.535Z,6.63
2022-09-26T20:06:02.774Z,5.82
2022-09-26T20:08:30.411Z,6.55
2022-09-26T20:11:03.979Z,5.80
2022-09-26T20:16:23.895Z,5.57
2022-09-26T20:18:51.882Z,5.65
2022-09-26T20:21:24.789Z,6.07
2022-09-26T20:24:00.694Z,5.95
2022-09-26T20:26:33.398Z,5.78
2022-09-26T20:29:01.647Z,5.33
2022-09-26T20:31:32.431Z,5.75
2022-09-26T20:34:03.480Z,6.63
2022-09-26T20:36:35.946Z,5.60
2022-09-26T20:39:13.174Z,6.00
2022-09-26T20:41:42.214Z,5.45
2022-09-26T20:44:15.350Z,6.60
2022-09-26T20:46:59.576Z,5.28
2022-09-26T20:49:35.132Z,6.65
2022-09-26T20:52:15.597Z,5.28
2022-09-26T20:54:45.593Z,6.05
2022-09-26T20:57:17.200Z,5.20
2022-09-26T20:59:45.542Z,7.25
2022-09-26T21:02:31.060Z,5.65
2022-09-26T21:05:04.529Z,5.70
2022-09-26T21:10:29.835Z,5.63
2022-09-26T21:13:01.283Z,6.90
2022-09-26T21:15:33.477Z,7.03
2022-09-26T21:18:02.217Z,5.63
2022-09-26T21:20:35.663Z,5.28
2022-09-26T21:23:28.920Z,7.07
2022-09-26T21:28:35.438Z,5.13
2022-09-26T21:31:09.549Z,5.68
2022-09-26T21:33:40.646Z,5.35
2022-09-26T21:36:09.055Z,6.15
2022-09-26T21:38:39.561Z,5.50
2022-09-26T21:41:12.573Z,5.80
2022-09-26T21:43:53.120Z,5.43
2022-09-26T21:46:25.901Z,6.40
2022-09-26T21:48:54.109Z,6.82
2022-09-26T21:51:23.751Z,6.05
2022-09-26T21:54:07.974Z,6.75
2022-09-26T21:56:50.167Z,6.22
2022-09-26T21:59:23.715Z,6.07
2022-09-26T22:04:28.032Z,5.85
2022-09-26T22:06:58.009Z,4.20
2022-09-26T22:09:25.784Z,4.88
2022-09-26T22:11:56.199Z,6.97
2022-09-26T22:14:26.712Z,5.85
2022-09-26T22:16:55.579Z,6.72
2022-09-26T22:19:24.108Z,6.78
2022-09-26T22:21:51.507Z,6.05
2022-09-26T22:24:19.514Z,5.22
2022-09-26T22:26:49.134Z,5.18
2022-09-26T22:29:19.495Z,5.68
2022-09-26T22:31:50.154Z,6.68
2022-09-26T22:34:22.732Z,5.00
2022-09-26T22:36:50.402Z,5.15
2022-09-26T22:39:20.305Z,6.50
2022-09-26T22:41:50.488Z,6.65
2022-09-26T22:44:23.399Z,5.93
2022-09-26T22:46:53.851Z,5.00
2022-09-26T22:49:26.904Z,5.25
2022-09-26T22:51:54.690Z,4.78
2022-09-26T22:54:22.589Z,5.13
2022-09-26T22:56:55.239Z,5.47
2022-09-26T22:59:22.821Z,4.88
2022-09-26T23:01:53.183Z,5.80
2022-09-26T23:04:46.310Z,5.00
2022-09-26T23:07:16.388Z,5.03
2022-09-26T23:09:44.410Z,5.18
2022-09-26T23:12:15.504Z,5.50
2022-09-26T23:14:45.764Z,5.90
2022-09-26T23:17:13.925Z,3.90
2022-09-26T23:19:41.960Z,4.75
2022-09-26T23:22:09.575Z,5.78
2022-09-26T23:24:36.995Z,7.30
2022-09-26T23:27:04.376Z,5.05
2022-09-26T23:29:34.537Z,6.63
2022-09-26T23:32:04.423Z,4.80
2022-09-26T23:34:38.167Z,5.47
2022-09-26T23:37:05.622Z,5.85
2022-09-26T23:39:33.793Z,5.20
2022-09-26T23:42:04.116Z,5.32
2022-09-26T23:44:36.497Z,5.90
2022-09-26T23:47:05.446Z,4.32
2022-09-26T23:49:36.004Z,4.63
2022-09-26T23:52:03.792Z,5.28
2022-09-26T23:54:31.349Z,5.38
2022-09-26T23:57:03.027Z,5.90
2022-09-26T23:59:33.459Z,5.28
